Time;durP1;ratioP1;P1;durP2;ratioP2;P2;SDS_P1;SDS_P2;PMS_P1;PMS_P2;Temp;Humidity;BMP_temperature;BMP_pressure;BME280_temperature;BME280_humidity;BME280_pressure;Samples;Min_cycle;Max_cycle;Signal;HPM_P1;HPM_P2
2022/07/22 00:02:17;367684.00;1.23;634.26;62727.00;0.21;109.19;;;;;24.90;1.00;;;;;;2263692;61;1402;-85
2022/07/22 00:04:44;439791.00;1.47;758.22;0.00;0.00;0.62;;;;;24.80;1.00;;;;;;2263565;61;1091;-84
2022/07/22 00:07:13;531870.00;1.77;916.71;54610.00;0.18;95.16;;;;;24.90;1.00;;;;;;2263624;61;1120;-84
2022/07/22 00:09:40;588325.00;1.96;1014.07;9600.00;0.03;17.26;;;;;24.70;1.00;;;;;;2263153;61;2024;-84
2022/07/22 00:12:08;595846.00;1.99;1027.05;34098.00;0.11;59.68;;;;;24.80;1.00;;;;;;2263039;61;2292;-84
2022/07/22 00:14:35;606360.00;2.02;1045.20;64756.00;0.22;112.70;;;;;24.80;1.00;;;;;;2263845;61;1160;-84
2022/07/22 00:17:02;379782.00;1.27;655.05;0.00;0.00;0.62;;;;;24.70;1.00;;;;;;2263698;61;1164;-85
2022/07/22 00:19:29;826957.00;2.76;1428.18;72469.00;0.24;126.03;;;;;24.50;1.00;;;;;;2264231;61;2361;-84
2022/07/22 00:21:56;628964.00;2.10;1084.26;47401.00;0.16;82.69;;;;;24.40;1.00;;;;;;2263641;61;1365;-84
2022/07/22 00:24:24;634063.00;2.11;1093.07;30623.00;0.10;53.66;;;;;24.40;1.00;;;;;;2263186;61;1579;-85
2022/07/22 00:26:51;826742.00;2.76;1427.80;85149.00;0.28;147.93;;;;;24.40;1.00;;;;;;2262998;61;1151;-85
2022/07/22 00:29:18;353176.00;1.18;609.32;55416.00;0.18;96.55;;;;;24.40;1.00;;;;;;2263763;61;1923;-84
2022/07/22 00:31:44;655741.00;2.19;1130.57;158360.00;0.53;274.21;;;;;24.10;1.00;;;;;;2263431;61;1371;-85
2022/07/22 00:34:12;386879.00;1.29;667.25;13052.00;0.04;23.24;;;;;24.10;1.00;;;;;;2263717;61;1072;-86
2022/07/22 00:36:39;688478.00;2.29;1187.26;98549.00;0.33;171.07;;;;;24.20;1.00;;;;;;2263751;61;1283;-84
2022/07/22 00:39:05;860255.00;2.87;1486.42;70494.00;0.23;122.61;;;;;24.30;1.00;;;;;;2262972;61;1736;-85
2022/07/22 00:41:34;803569.00;2.68;1387.35;78335.00;0.26;136.16;;;;;24.30;1.00;;;;;;2263089;61;1264;-85
2022/07/22 00:44:03;607494.00;2.02;1047.16;79018.00;0.26;137.34;;;;;24.30;1.00;;;;;;2263427;61;1080;-86
2022/07/22 00:46:31;611901.00;2.04;1054.77;57570.00;0.19;100.28;;;;;24.30;1.00;;;;;;2263575;61;1180;-85
2022/07/22 00:48:58;709129.00;2.36;1223.07;67470.00;0.22;117.39;;;;;24.40;1.00;;;;;;2263460;61;2000;-85
2022/07/22 00:51:27;798619.00;2.66;1378.72;81186.00;0.27;141.09;;;;;24.50;1.00;;;;;;2264278;61;1343;-85
2022/07/22 00:53:56;518488.00;1.73;893.66;14475.00;0.05;25.70;;;;;24.60;1.00;;;;;;2262849;61;1136;-84
2022/07/22 00:56:24;524975.00;1.75;904.83;58560.00;0.20;101.99;;;;;24.70;1.00;;;;;;2262885;61;1188;-84
2022/07/22 00:58:54;1070807.00;3.57;1858.29;87623.00;0.29;152.20;;;;;24.90;1.00;;;;;;2263469;61;1754;-84
2022/07/22 01:01:21;683227.00;2.28;1178.16;172433.00;0.57;298.46;;;;;24.50;1.00;;;;;;2263411;61;2055;-85
2022/07/22 01:03:48;727938.00;2.43;1255.72;99170.00;0.33;172.14;;;;;24.30;1.00;;;;;;2263496;61;2225;-85
2022/07/22 01:08:46;434623.00;1.45;749.34;60417.00;0.20;105.20;;;;;24.10;1.00;;;;;;2254469;61;1994;-86
2022/07/22 01:11:15;269951.00;0.90;466.26;73171.00;0.24;127.24;;;;;24.10;1.00;;;;;;2251118;61;1286;-85
2022/07/22 01:13:43;590522.00;1.97;1017.86;65949.00;0.22;114.76;;;;;24.10;1.00;;;;;;2251325;61;1332;-85
2022/07/22 01:16:14;428620.00;1.43;739.01;76644.00;0.26;133.24;;;;;24.00;1.00;;;;;;2251447;61;1177;-86
2022/07/22 01:18:43;222770.00;0.74;385.11;0.00;0.00;0.62;;;;;23.80;1.00;;;;;;2251281;61;1184;-85
2022/07/22 01:21:13;311733.00;1.04;538.09;0.00;0.00;0.62;;;;;23.70;1.00;;;;;;2251181;61;1118;-85
2022/07/22 01:23:41;187928.00;0.63;325.14;0.00;0.00;0.62;;;;;24.00;1.00;;;;;;2251359;61;1161;-85
2022/07/22 01:26:08;372955.00;1.24;643.32;0.00;0.00;0.62;;;;;24.00;1.00;;;;;;2250638;61;1106;-84
2022/07/22 01:28:35;162747.00;0.54;281.77;0.00;0.00;0.62;;;;;23.90;1.00;;;;;;2250847;61;1920;-85
2022/07/22 01:31:02;275891.00;0.92;476.47;0.00;0.00;0.62;;;;;24.10;1.00;;;;;;2251446;61;1177;-84
2022/07/22 01:33:28;744371.00;2.48;1284.27;121719.00;0.41;211.05;;;;;24.10;1.00;;;;;;2252083;61;1577;-87
2022/07/22 01:35:55;662611.00;2.21;1142.46;119803.00;0.40;207.74;;;;;24.10;1.00;;;;;;2251329;61;1051;-85
2022/07/22 01:38:24;623395.00;2.08;1074.63;139800.00;0.47;242.23;;;;;23.90;1.00;;;;;;2250803;61;1123;-85
2022/07/22 01:40:51;668626.00;2.23;1152.87;68230.00;0.23;118.70;;;;;24.10;1.00;;;;;;2250233;61;1114;-85
2022/07/22 01:43:20;493353.00;1.64;850.38;91927.00;0.31;159.63;;;;;24.10;1.00;;;;;;2250468;61;1370;-85
2022/07/22 01:45:50;675305.00;2.25;1164.44;84674.00;0.28;147.11;;;;;24.10;1.00;;;;;;2251161;61;1169;-84
2022/07/22 01:48:17;668223.00;2.23;1152.18;31619.00;0.11;55.39;;;;;23.90;1.00;;;;;;2252094;61;1134;-85
2022/07/22 01:50:44;328315.00;1.09;566.59;8411.00;0.03;15.20;;;;;24.00;1.00;;;;;;2251217;61;1940;-86
2022/07/22 01:53:12;411142.00;1.37;708.96;34546.00;0.12;60.45;;;;;23.70;1.00;;;;;;2251417;61;1360;-86
2022/07/22 01:55:40;499355.00;1.66;860.71;20923.00;0.07;36.87;;;;;23.50;1.00;;;;;;2250554;61;1142;-85
2022/07/22 01:58:07;474737.00;1.58;818.34;21510.00;0.07;37.88;;;;;23.40;1.00;;;;;;2250552;61;1144;-85
2022/07/22 02:00:35;922138.00;3.07;1595.04;112626.00;0.38;195.36;;;;;23.20;1.00;;;;;;2251033;61;1144;-86
2022/07/22 02:03:02;484363.00;1.61;834.91;69011.00;0.23;120.05;;;;;23.00;1.00;;;;;;2251554;61;1276;-85
2022/07/22 02:05:29;785400.00;2.62;1355.67;69824.00;0.23;121.46;;;;;22.80;1.00;;;;;;2251322;61;1047;-86
2022/07/22 02:08:00;733876.00;2.45;1266.03;105473.00;0.35;183.02;;;;;23.00;1.00;;;;;;2252700;61;1420;-87
2022/07/22 02:10:27;121590608.00;405.30;72823280.00;110167.00;0.37;191.12;;;;;23.10;1.00;;;;;;2251995;61;1940;-86
2022/07/22 02:12:55;943357.00;3.14;1632.40;80168.00;0.27;139.33;;;;;23.30;1.00;;;;;;2251326;61;1636;-86
2022/07/22 02:15:22;806661.00;2.69;1392.74;83391.00;0.28;144.89;;;;;23.30;1.00;;;;;;2251357;61;1156;-85
2022/07/22 02:17:49;390834.00;1.30;674.05;70056.00;0.23;121.86;;;;;23.30;1.00;;;;;;2250949;61;1093;-85
2022/07/22 02:20:16;996559.00;3.32;1726.38;288889.00;0.96;498.82;;;;;23.40;1.00;;;;;;2250586;61;1074;-85
2022/07/22 02:22:43;680642.00;2.27;1173.69;65274.00;0.22;113.59;;;;;23.50;1.00;;;;;;2250706;61;1380;-86
2022/07/22 02:25:11;364871.00;1.22;629.42;96186.00;0.32;166.99;;;;;23.50;1.00;;;;;;2251855;61;1177;-88
2022/07/22 02:27:38;164379.00;0.55;284.58;59875.00;0.20;104.26;;;;;23.50;1.00;;;;;;2253008;61;1001;-86
2022/07/22 02:30:08;274047.00;0.91;473.30;67513.00;0.23;117.46;;;;;23.50;1.00;;;;;;2252969;61;1928;-87
2022/07/22 02:32:36;498230.00;1.66;858.78;65435.00;0.22;113.87;;;;;23.40;1.00;;;;;;2252948;61;1402;-87
2022/07/22 02:35:03;296641.00;0.99;512.15;72822.00;0.24;126.64;;;;;23.30;1.00;;;;;;2251945;61;1080;-85
2022/07/22 02:37:30;336821.00;1.12;581.21;72302.00;0.24;125.74;;;;;23.60;1.00;;;;;;2251677;61;1534;-85
2022/07/22 02:39:56;117236648.00;390.79;65270528.00;75258.00;0.25;130.85;;;;;23.70;1.00;;;;;;2250798;61;1502;-84
2022/07/22 02:42:23;344595.00;1.15;594.57;98235.00;0.33;170.53;;;;;23.60;1.00;;;;;;2250317;61;1265;-84
2022/07/22 02:44:50;411878.00;1.37;710.23;160068.00;0.53;277.16;;;;;23.60;1.00;;;;;;2250965;61;1070;-85
2022/07/22 02:47:18;196385.00;0.65;339.70;65005.00;0.22;113.13;;;;;23.90;1.00;;;;;;2252552;61;1116;-86
2022/07/22 02:49:45;320141.00;1.07;552.54;62877.00;0.21;109.45;;;;;23.90;1.00;;;;;;2251449;61;1998;-85
2022/07/22 02:52:12;410538.00;1.37;707.92;64928.00;0.22;113.00;;;;;23.80;1.00;;;;;;2250619;61;1384;-85
2022/07/22 02:54:39;507241.00;1.69;874.29;149648.00;0.50;259.20;;;;;23.90;1.00;;;;;;2250349;61;1146;-85
2022/07/22 02:57:06;436460.00;1.45;752.49;174487.00;0.58;302.00;;;;;23.90;1.00;;;;;;2250140;61;1080;-85
2022/07/22 02:59:33;287743.00;0.96;496.85;110171.00;0.37;191.13;;;;;23.80;1.00;;;;;;2250726;61;1078;-85
2022/07/22 03:02:00;233919.00;0.78;404.29;72609.00;0.24;126.27;;;;;24.00;1.00;;;;;;2250787;61;1352;-83
2022/07/22 03:04:28;191391.00;0.64;331.10;60386.00;0.20;105.14;;;;;24.10;1.00;;;;;;2250741;61;1105;-85
2022/07/22 03:06:56;265199.00;0.88;458.09;72965.00;0.24;126.88;;;;;23.90;1.00;;;;;;2250674;61;1116;-84
2022/07/22 03:09:22;186874.00;0.62;323.33;63742.00;0.21;110.95;;;;;23.80;1.00;;;;;;2250227;61;2007;-84
2022/07/22 03:11:49;205934.00;0.69;356.14;63003.00;0.21;109.67;;;;;23.70;1.00;;;;;;2249802;61;1413;-85
2022/07/22 03:14:18;240466.00;0.80;415.55;69380.00;0.23;120.69;;;;;23.80;1.00;;;;;;2250365;61;1220;-85
2022/07/22 03:16:45;304346.00;1.01;525.39;65209.00;0.22;113.48;;;;;23.70;1.00;;;;;;2251205;61;1137;-85
2022/07/22 03:19:12;165080.00;0.55;285.79;63573.00;0.21;110.65;;;;;23.50;1.00;;;;;;2251388;61;1539;-85
2022/07/22 03:21:40;169097.00;0.56;292.71;68478.00;0.23;119.13;;;;;23.60;1.00;;;;;;2251247;61;1519;-85
2022/07/22 03:24:07;180222.00;0.60;311.87;79683.00;0.27;138.49;;;;;24.00;1.00;;;;;;2252350;61;1553;-84
2022/07/22 03:26:34;219977.00;0.73;380.30;70495.00;0.23;122.62;;;;;24.00;1.00;;;;;;2252632;61;1074;-85
2022/07/22 03:29:01;304739.00;1.02;526.07;69181.00;0.23;120.35;;;;;24.10;1.00;;;;;;2252245;61;1924;-86
2022/07/22 03:31:28;170524.00;0.57;295.17;74518.00;0.25;129.57;;;;;23.80;1.00;;;;;;2252590;61;1396;-87
2022/07/22 03:33:55;188299.00;0.63;325.78;60471.00;0.20;105.29;;;;;23.40;1.00;;;;;;2252799;61;1073;-87
2022/07/22 03:36:22;301014.00;1.00;519.66;50303.00;0.17;87.71;;;;;23.40;1.00;;;;;;2250976;61;1068;-85
2022/07/22 03:38:50;230398.00;0.77;398.23;69901.00;0.23;121.59;;;;;23.40;1.00;;;;;;2250630;61;1141;-85
2022/07/22 03:41:17;317928.00;1.06;548.74;69032.00;0.23;120.09;;;;;23.30;1.00;;;;;;2249993;61;1675;-85
2022/07/22 03:43:44;194310.00;0.65;336.13;67783.00;0.23;117.93;;;;;23.30;1.00;;;;;;2250195;61;1229;-86
2022/07/22 03:46:11;217133.00;0.72;375.41;73632.00;0.25;128.04;;;;;23.40;1.00;;;;;;2250263;61;1397;-85
2022/07/22 03:48:38;747593.00;2.49;1289.87;161251.00;0.54;279.19;;;;;23.30;1.00;;;;;;2250338;61;1534;-84
2022/07/22 03:51:05;216336.00;0.72;374.04;69307.00;0.23;120.56;;;;;23.20;1.00;;;;;;2250805;61;1948;-84
2022/07/22 03:53:33;302663.00;1.01;522.50;64119.00;0.21;111.60;;;;;23.30;1.00;;;;;;2251039;61;1206;-85
2022/07/22 04:26:07;1203149.00;4.01;2095.91;28275.00;0.09;49.60;;;;;23.60;1.00;;;;;;2262836;61;953;-89
2022/07/22 04:28:35;239764.00;0.80;414.35;0.00;0.00;0.62;;;;;23.10;1.00;;;;;;2261162;61;1684;-90
2022/07/22 04:33:36;1391914.00;4.64;2441.34;0.00;0.00;0.62;;;;;23.00;1.00;;;;;;2262516;61;1393;-87
2022/07/22 05:15:53;1359432.00;4.53;2381.29;0.00;0.00;0.62;;;;;24.30;1.00;;;;;;2262568;61;1323;-89
2022/07/22 05:41:15;1639030.00;5.46;2907.57;24192.00;0.08;42.53;;;;;24.90;1.00;;;;;;2359481;40;3679;-89
2022/07/22 05:56:34;1625462.00;5.42;2881.50;56773.00;0.19;98.90;;;;;29.70;1.00;;;;;;2326592;40;3686;-85
2022/07/22 05:59:02;1839225.00;6.13;3299.26;171977.00;0.57;297.67;;;;;31.40;1.00;;;;;;2267080;61;1852;-91
2022/07/22 06:46:39;1978123.00;6.59;3579.50;64317.00;0.21;111.94;;;;;37.80;1.00;;;;;;2334103;40;3527;-87
2022/07/22 06:49:07;539072.00;1.80;929.12;19511.00;0.07;34.42;;;;;38.00;1.00;;;;;;2279823;40;3615;-86
2022/07/22 06:51:35;631639.00;2.11;1088.88;27189.00;0.09;47.72;;;;;38.40;1.00;;;;;;2264557;61;2003;-89
2022/07/22 06:54:02;1535430.00;5.12;2709.97;176963.00;0.59;306.26;;;;;38.70;1.00;;;;;;2274609;41;3599;-88
2022/07/22 07:01:34;759286.00;2.53;1310.21;778.00;0.00;1.97;;;;;38.50;1.00;;;;;;2353114;56;2133;-89
2022/07/22 07:04:04;1283458.00;4.28;2241.86;69765.00;0.23;121.35;;;;;38.40;1.00;;;;;;2264800;61;1724;-86
2022/07/22 07:06:31;517013.00;1.72;891.12;0.00;0.00;0.62;;;;;38.50;1.00;;;;;;2264822;61;1137;-90
2022/07/22 07:08:58;1021208.00;3.40;1770.07;45359.00;0.15;79.16;;;;;38.20;1.00;;;;;;2302731;56;3761;-88
2022/07/22 07:11:25;382572.00;1.28;659.85;0.00;0.00;0.62;;;;;38.30;1.00;;;;;;2264633;61;1947;-86
2022/07/22 07:13:52;269434.00;0.90;465.37;0.00;0.00;0.62;;;;;37.90;1.00;;;;;;2264634;61;1442;-86
2022/07/22 07:16:19;418537.00;1.40;721.67;13343.00;0.04;23.74;;;;;38.80;1.00;;;;;;2264683;61;1235;-87
2022/07/22 07:18:46;328131.00;1.09;566.27;0.00;0.00;0.62;;;;;39.30;1.00;;;;;;2264771;61;1484;-87
2022/07/22 07:21:15;767374.00;2.56;1324.28;30240.00;0.10;53.00;;;;;39.40;1.00;;;;;;2264499;61;1077;-87
2022/07/22 07:23:42;776840.00;2.59;1340.76;91621.00;0.31;159.11;;;;;39.50;1.00;;;;;;2264701;61;1118;-89
2022/07/22 07:33:39;2340961.00;7.80;4349.55;100922.00;0.34;175.16;;;;;38.30;1.00;;;;;;2273755;56;3666;-88
2022/07/22 07:36:07;1155314.00;3.85;2009.63;92165.00;0.31;160.05;;;;;38.50;1.00;;;;;;2271990;41;3629;-90
2022/07/22 07:38:35;1036075.00;3.45;1796.47;79230.00;0.26;137.71;;;;;38.70;1.00;;;;;;2305768;55;3746;-88
2022/07/22 07:41:02;534067.00;1.78;920.50;62119.00;0.21;108.14;;;;;38.30;1.00;;;;;;2264508;61;1107;-86
2022/07/22 07:43:29;1214454.00;4.05;2116.38;224804.00;0.75;388.61;;;;;38.80;1.00;;;;;;2264342;61;1420;-88
2022/07/22 07:45:56;880211.00;2.93;1521.39;59404.00;0.20;103.45;;;;;39.00;1.00;;;;;;2264462;61;1048;-86
2022/07/22 07:48:23;416233.00;1.39;717.71;61886.00;0.21;107.74;;;;;39.10;1.00;;;;;;2264466;61;894;-87
2022/07/22 07:50:50;165012.00;0.55;285.67;50703.00;0.17;88.40;;;;;38.60;1.00;;;;;;2264464;61;1993;-88
2022/07/22 07:55:55;528971.00;1.76;911.72;53657.00;0.18;93.51;;;;;38.20;1.00;;;;;;2280807;40;3507;-89
2022/07/22 08:05:50;1210861.00;4.04;2109.87;41464.00;0.14;72.42;;;;;38.60;1.00;;;;;;2259149;61;1300;-89
2022/07/22 08:10:52;1166008.00;3.89;2028.88;0.00;0.00;0.62;;;;;38.40;1.00;;;;;;2258564;61;1949;-88
2022/07/22 08:13:21;334259.00;1.11;576.81;39475.00;0.13;68.98;;;;;38.40;1.00;;;;;;2282144;40;3803;-87
2022/07/22 08:18:16;1149749.00;3.83;1999.62;0.00;0.00;0.62;;;;;38.00;1.00;;;;;;2262843;61;1303;-88
2022/07/22 08:20:43;308680.00;1.03;532.84;0.00;0.00;0.62;;;;;37.60;1.00;;;;;;2261213;61;1435;-89
2022/07/22 08:30:42;742724.00;2.48;1281.41;0.00;0.00;0.62;;;;;38.30;1.00;;;;;;2258621;61;1966;-87
2022/07/22 08:33:10;270327.00;0.90;466.91;0.00;0.00;0.62;;;;;38.60;1.00;;;;;;2256298;61;1396;-88
2022/07/22 08:35:37;165714.00;0.55;286.88;0.00;0.00;0.62;;;;;38.10;1.00;;;;;;2255950;61;909;-85
2022/07/22 08:38:04;181951.00;0.61;314.85;0.00;0.00;0.62;;;;;36.80;1.00;;;;;;2256303;61;1551;-86
2022/07/22 08:40:31;104118.00;0.35;180.68;0.00;0.00;0.62;;;;;37.00;1.00;;;;;;2256532;61;1121;-85
2022/07/22 08:43:00;213574.00;0.71;369.29;0.00;0.00;0.62;;;;;36.60;1.00;;;;;;2256389;61;1702;-86
2022/07/22 08:45:29;88191.00;0.29;153.18;0.00;0.00;0.62;;;;;37.00;1.00;;;;;;2280540;56;3796;-87
2022/07/22 08:48:02;222190.00;0.74;384.11;0.00;0.00;0.62;;;;;36.60;1.00;;;;;;2264390;61;1013;-86
2022/07/22 08:58:17;1486464.00;4.95;2617.68;0.00;0.00;0.62;;;;;36.20;1.00;;;;;;2329237;56;3647;31
2022/07/22 09:03:21;996466.00;3.32;1726.21;17667.00;0.06;31.23;;;;;36.10;1.00;;;;;;2284329;56;3716;-87
2022/07/22 09:08:16;1067695.00;3.56;1852.75;0.00;0.00;0.62;;;;;35.30;1.00;;;;;;2274457;40;3528;-87
2022/07/22 09:13:12;575053.00;1.92;991.16;4521.00;0.02;8.46;;;;;35.10;1.00;;;;;;2266312;61;1417;-86
2022/07/22 09:15:43;296726.00;0.99;512.29;59433.00;0.20;103.50;;;;;35.00;1.00;;;;;;2263906;61;1053;-84
2022/07/22 09:18:15;402929.00;1.34;694.84;87091.00;0.29;151.28;;;;;35.20;1.00;;;;;;2263646;61;1613;-86
2022/07/22 09:20:45;493123.00;1.64;849.98;23280.00;0.08;40.95;;;;;35.50;1.00;;;;;;2263646;61;1616;-84
2022/07/22 09:23:13;490402.00;1.63;845.30;0.00;0.00;0.62;;;;;35.50;1.00;;;;;;2285752;56;3788;-84
2022/07/22 09:25:41;160607.00;0.54;278.09;0.00;0.00;0.62;;;;;35.50;1.00;;;;;;2263735;61;1702;-86
2022/07/22 09:28:14;175124.00;0.58;303.09;28602.00;0.10;50.16;;;;;34.60;1.00;;;;;;2263950;61;1582;-85
2022/07/22 09:30:48;380052.00;1.27;655.51;0.00;0.00;0.62;;;;;33.60;1.00;;;;;;2295373;40;3771;-89
2022/07/22 09:33:16;523769.00;1.75;902.76;9042.00;0.03;16.29;;;;;32.90;1.00;;;;;;2264098;61;1420;-86
2022/07/22 09:35:46;358810.00;1.20;619.00;36770.00;0.12;64.30;;;;;33.00;1.00;;;;;;2264077;61;1776;-85
2022/07/22 09:43:20;883688.00;2.95;1527.49;76257.00;0.25;132.57;;;;;33.10;1.00;;;;;;1990871;56;3720;-87
2022/07/22 09:48:17;623485.00;2.08;1074.79;47048.00;0.16;82.08;;;;;33.10;1.00;;;;;;2281696;40;3566;-87
2022/07/22 09:50:47;688165.00;2.29;1186.72;57596.00;0.19;100.32;;;;;32.30;1.00;;;;;;2272532;56;3758;-88
2022/07/22 09:55:47;1388662.00;4.63;2435.31;80787.00;0.27;140.40;;;;;31.40;1.00;;;;;;2253358;61;1850;-87
2022/07/22 10:00:49;860593.00;2.87;1487.01;0.00;0.00;0.62;;;;;31.70;1.00;;;;;;2300811;56;3713;-86
2022/07/22 10:03:22;373861.00;1.25;644.87;0.00;0.00;0.62;;;;;31.90;1.00;;;;;;2263475;61;1771;-87
2022/07/22 10:08:19;1056361.00;3.52;1832.55;0.00;0.00;0.62;;;;;31.80;1.00;;;;;;2262303;61;1331;-88
2022/07/22 10:10:46;236913.00;0.79;409.44;0.00;0.00;0.62;;;;;32.10;1.00;;;;;;2260645;61;2013;-86
2022/07/22 10:13:13;337335.00;1.12;582.09;0.00;0.00;0.62;;;;;32.10;1.00;;;;;;2260484;61;1413;-88
2022/07/22 10:15:40;484102.00;1.61;834.46;594.00;0.00;1.65;;;;;32.10;1.00;;;;;;2260680;61;1024;-88
2022/07/22 10:18:15;656856.00;2.19;1132.50;0.00;0.00;0.62;;;;;32.20;1.00;;;;;;2260801;61;1095;-90
2022/07/22 10:20:43;248121.00;0.83;428.72;0.00;0.00;0.62;;;;;32.20;1.00;;;;;;2260850;61;1472;-89
2022/07/22 10:23:27;384153.00;1.28;662.56;0.00;0.00;0.62;;;;;31.80;1.00;;;;;;2260863;61;1370;-89
2022/07/22 10:28:26;848433.00;2.83;1465.73;0.00;0.00;0.62;;;;;31.40;1.00;;;;;;2279294;40;3638;-85
2022/07/22 10:31:16;142715.00;0.48;247.25;0.00;0.00;0.62;;;;;32.00;1.00;;;;;;2264760;61;1929;-89
2022/07/22 10:33:45;105667.00;0.35;183.35;0.00;0.00;0.62;;;;;32.10;1.00;;;;;;2265115;56;3744;-85
2022/07/22 10:36:13;184190.00;0.61;318.70;0.00;0.00;0.62;;;;;32.20;1.00;;;;;;2264930;61;998;-88
2022/07/22 10:39:05;310805.00;1.04;536.49;6743.00;0.02;12.31;;;;;32.00;1.00;;;;;;2266620;55;3739;-89
2022/07/22 10:41:36;696408.00;2.32;1201.01;75950.00;0.25;132.04;;;;;31.60;1.00;;;;;;2291968;41;3837;-89
2022/07/22 10:44:06;192887.00;0.64;333.68;0.00;0.00;0.62;;;;;31.40;1.00;;;;;;2265404;61;1409;-89
2022/07/22 10:47:02;229806.00;0.77;397.22;0.00;0.00;0.62;;;;;31.30;1.00;;;;;;2264717;61;1258;-89
2022/07/22 10:49:32;707178.00;2.36;1219.69;14164.00;0.05;25.16;;;;;30.70;1.00;;;;;;2284266;41;3913;-89
2022/07/22 10:52:16;184686.00;0.62;319.56;0.00;0.00;0.62;;;;;30.90;1.00;;;;;;2265366;61;2002;-90
2022/07/22 10:55:18;65160.00;0.22;113.40;0.00;0.00;0.62;;;;;31.20;1.00;;;;;;2264916;61;1132;-89
2022/07/22 10:57:45;158593.00;0.53;274.62;0.00;0.00;0.62;;;;;31.50;1.00;;;;;;2264677;61;1529;-89
2022/07/22 11:00:17;423201.00;1.41;729.69;24981.00;0.08;43.89;;;;;31.40;1.00;;;;;;2264830;61;1061;-88
2022/07/22 11:02:45;305118.00;1.02;526.72;0.00;0.00;0.62;;;;;31.30;1.00;;;;;;2264667;61;1603;-89
2022/07/22 11:07:56;8456.00;0.03;15.27;0.00;0.00;0.62;;;;;31.30;1.00;;;;;;2264558;61;972;-89
2022/07/22 11:13:01;1308057.00;4.36;2286.86;0.00;0.00;0.62;;;;;31.70;1.00;;;;;;2262284;61;1351;-88
2022/07/22 11:15:34;271825.00;0.91;469.48;32145.00;0.11;56.30;;;;;31.50;1.00;;;;;;2260620;61;921;-88
2022/07/22 11:18:01;178286.00;0.59;308.54;0.00;0.00;0.62;;;;;31.60;1.00;;;;;;2277055;56;3824;-88
2022/07/22 11:20:30;456406.00;1.52;786.80;146778.00;0.49;254.25;;;;;31.70;1.00;;;;;;2264463;61;952;-87
2022/07/22 11:22:57;263921.00;0.88;455.89;36566.00;0.12;63.95;;;;;31.30;1.00;;;;;;2264604;61;2129;-89
2022/07/22 11:25:30;151011.00;0.50;261.55;0.00;0.00;0.62;;;;;31.30;1.00;;;;;;2264663;61;963;-87
2022/07/22 11:27:58;206146.00;0.69;356.50;0.00;0.00;0.62;;;;;31.70;1.00;;;;;;2264544;61;1635;-89
2022/07/22 11:30:25;324692.00;1.08;560.36;0.00;0.00;0.62;;;;;31.60;1.00;;;;;;2264660;61;1670;-89
2022/07/22 11:32:55;197005.00;0.66;340.77;0.00;0.00;0.62;;;;;32.00;1.00;;;;;;2264420;61;2015;-88
2022/07/22 11:35:22;680120.00;2.27;1172.78;27797.00;0.09;48.77;;;;;32.10;1.00;;;;;;2284695;41;3771;-88
2022/07/22 11:37:57;377177.00;1.26;650.57;66674.00;0.22;116.01;;;;;31.40;1.00;;;;;;2264480;61;1684;-88
2022/07/22 11:40:24;495249.00;1.65;853.64;23377.00;0.08;41.12;;;;;31.00;1.00;;;;;;2294834;56;3813;-89
2022/07/22 11:43:02;174249.00;0.58;301.59;0.00;0.00;0.62;;;;;31.30;1.00;;;;;;2264759;61;1292;-90
2022/07/22 11:50:35;1048665.00;3.50;1818.86;0.00;0.00;0.62;;;;;32.20;1.00;;;;;;2262246;61;1396;-89
2022/07/22 11:55:32;1041642.00;3.47;1806.37;0.00;0.00;0.62;;;;;32.30;1.00;;;;;;2261988;61;1418;-86
2022/07/22 11:57:59;402548.00;1.34;694.19;62369.00;0.21;108.57;;;;;32.20;1.00;;;;;;2260490;61;1037;-87
2022/07/22 12:00:26;173080.00;0.58;299.57;0.00;0.00;0.62;;;;;31.70;1.00;;;;;;2260186;61;1197;-88
2022/07/22 12:02:54;178969.00;0.60;309.71;0.00;0.00;0.62;;;;;31.80;1.00;;;;;;2260467;61;1683;-89
2022/07/22 12:05:21;104353.00;0.35;181.09;0.00;0.00;0.62;;;;;32.40;1.00;;;;;;2260494;61;1089;-88
2022/07/22 12:07:50;305173.00;1.02;526.81;9871.00;0.03;17.73;;;;;32.30;1.00;;;;;;2275750;40;3819;-87
2022/07/22 12:12:48;1081065.00;3.60;1876.59;0.00;0.00;0.62;;;;;32.20;1.00;;;;;;2268791;40;3365;-89
2022/07/22 12:15:18;340358.00;1.13;587.29;0.00;0.00;0.62;;;;;32.10;1.00;;;;;;2264585;61;1705;-89
2022/07/22 12:17:46;172839.00;0.58;299.16;0.00;0.00;0.62;;;;;32.10;1.00;;;;;;2264365;61;907;-90
2022/07/22 12:20:14;253684.00;0.85;438.29;0.00;0.00;0.62;;;;;31.90;1.00;;;;;;2264572;61;949;-87
2022/07/22 12:40:20;680831.00;2.27;1174.01;0.00;0.00;0.62;;;;;32.60;1.00;;;;;;2265749;61;1195;-86
2022/07/22 12:43:02;82400.00;0.27;143.18;0.00;0.00;0.62;;;;;32.70;1.00;;;;;;2264479;61;1457;-88
2022/07/22 12:45:30;215552.00;0.72;372.69;0.00;0.00;0.62;;;;;32.50;1.00;;;;;;2290282;40;3654;-87
2022/07/22 12:48:06;166307.00;0.55;287.91;0.00;0.00;0.62;;;;;32.60;1.00;;;;;;2264417;61;1102;-89
2022/07/22 12:50:35;419261.00;1.40;722.92;28686.00;0.10;50.31;;;;;32.50;1.00;;;;;;2266217;56;3765;-88
2022/07/22 12:53:05;305925.00;1.02;528.10;0.00;0.00;0.62;;;;;32.70;1.00;;;;;;2266244;56;3753;-86
2022/07/22 12:55:34;641576.00;2.14;1106.06;25051.00;0.08;44.02;;;;;32.50;1.00;;;;;;2297933;41;3778;-87
2022/07/22 13:05:33;504353.00;1.68;869.32;0.00;0.00;0.62;;;;;32.90;1.00;;;;;;2262221;61;1210;-86
2022/07/22 13:08:00;304252.00;1.01;525.23;0.00;0.00;0.62;;;;;33.20;1.00;;;;;;2260076;61;1629;-88
2022/07/22 13:12:59;966725.00;3.22;1673.63;0.00;0.00;0.62;;;;;32.90;1.00;;;;;;2254090;61;1903;-89
2022/07/22 13:15:26;286080.00;0.95;493.99;0.00;0.00;0.62;;;;;33.10;1.00;;;;;;2252112;61;1690;-88
2022/07/22 13:17:55;689136.00;2.30;1188.40;0.00;0.00;0.62;;;;;33.20;1.00;;;;;;2270188;56;3744;-88
2022/07/22 13:20:22;200052.00;0.67;346.01;0.00;0.00;0.62;;;;;33.60;1.00;;;;;;2264186;61;1491;-87
2022/07/22 13:22:50;345615.00;1.15;596.32;1047.00;0.00;2.43;;;;;33.80;1.00;;;;;;2266376;40;3658;-86
2022/07/22 13:27:48;1182292.00;3.94;2058.24;0.00;0.00;0.62;;;;;33.20;1.00;;;;;;2261807;61;1342;-87
2022/07/22 13:30:17;186902.00;0.62;323.37;0.00;0.00;0.62;;;;;33.00;1.00;;;;;;2260273;61;1686;-89
2022/07/22 13:32:44;132039.00;0.44;228.85;0.00;0.00;0.62;;;;;33.10;1.00;;;;;;2260068;61;2010;-89
2022/07/22 13:35:15;318924.00;1.06;550.45;12794.00;0.04;22.79;;;;;32.60;1.00;;;;;;2260120;61;1644;-89
2022/07/22 13:40:16;1734935.00;5.78;3093.51;38259.00;0.13;66.88;;;;;33.00;1.00;;;;;;2266198;61;1211;-87
2022/07/22 13:42:46;538527.00;1.80;928.18;0.00;0.00;0.62;;;;;33.40;1.00;;;;;;2264471;61;1402;-88
2022/07/22 13:45:13;145957.00;0.49;252.84;0.00;0.00;0.62;;;;;33.50;1.00;;;;;;2288157;56;3768;-87
2022/07/22 13:47:42;124845.00;0.42;216.44;0.00;0.00;0.62;;;;;33.20;1.00;;;;;;2264724;61;1739;-87
2022/07/22 13:55:09;1738391.00;5.79;3100.26;0.00;0.00;0.62;;;;;33.00;1.00;;;;;;2277300;55;3705;-88
2022/07/22 13:57:36;179200.00;0.60;310.11;0.00;0.00;0.62;;;;;33.10;1.00;;;;;;2264877;61;1039;-88
2022/07/22 14:00:06;232320.00;0.77;401.54;0.00;0.00;0.62;;;;;33.10;1.00;;;;;;2264692;61;1114;-89
2022/07/22 14:02:33;101790.00;0.34;176.66;0.00;0.00;0.62;;;;;33.20;1.00;;;;;;2264878;40;3652;-90
2022/07/22 14:05:04;331528.00;1.11;572.11;0.00;0.00;0.62;;;;;33.40;1.00;;;;;;2326198;40;3601;-87
2022/07/22 14:07:31;488730.00;1.63;842.42;26289.00;0.09;46.16;;;;;33.50;1.00;;;;;;2279839;56;3803;-86
2022/07/22 14:09:58;653899.00;2.18;1127.38;42548.00;0.14;74.30;;;;;33.30;1.00;;;;;;2279886;56;3756;-88
2022/07/22 14:12:33;228600.00;0.76;395.14;0.00;0.00;0.62;;;;;33.30;1.00;;;;;;2266809;55;3758;-90
2022/07/22 14:15:02;216386.00;0.72;374.12;0.00;0.00;0.62;;;;;33.20;1.00;;;;;;2268878;55;3776;-89
2022/07/22 14:17:29;219386.00;0.73;379.29;72490.00;0.24;126.06;;;;;33.50;1.00;;;;;;2264678;61;1682;-89
2022/07/22 14:19:56;225400.00;0.75;389.63;0.00;0.00;0.62;;;;;33.70;1.00;;;;;;2264431;61;1027;-88